createdAt,value
2023-05-12T00:21:04.152Z,100.00
2023-05-12T00:27:52.270Z,100.00
2023-05-12T00:49:44.126Z,100.00
2023-05-12T00:56:01.608Z,100.00
2023-05-12T00:58:51.137Z,100.00
2023-05-12T01:05:15.240Z,100.00
2023-05-12T01:11:54.271Z,100.00
2023-05-12T01:18:10.334Z,100.00
2023-05-12T01:21:30.171Z,100.00
2023-05-12T01:28:00.172Z,100.00
2023-05-12T01:30:31.067Z,100.00
2023-05-12T01:33:28.147Z,100.00
2023-05-12T01:36:16.418Z,100.00
2023-05-12T02:42:26.623Z,100.00
2023-05-12T03:25:05.758Z,100.00
2023-05-12T03:27:58.346Z,100.00
2023-05-12T03:31:00.062Z,100.00
2023-05-12T03:33:32.508Z,100.00
2023-05-12T03:46:24.491Z,100.00
2023-05-12T03:48:57.786Z,100.00
2023-05-12T03:51:33.815Z,100.00
2023-05-12T03:54:12.143Z,100.00
2023-05-12T03:56:44.341Z,100.00
2023-05-12T03:59:25.891Z,100.00
2023-05-12T04:02:02.225Z,100.00
2023-05-12T04:30:20.154Z,100.00
2023-05-12T05:55:07.963Z,100.00
2023-05-12T05:57:39.553Z,100.00
2023-05-12T06:00:12.933Z,100.00
2023-05-12T06:02:46.359Z,100.00
2023-05-12T06:05:20.557Z,100.00
2023-05-12T06:07:50.779Z,100.00
2023-05-12T06:10:31.655Z,100.00
2023-05-12T06:13:01.683Z,100.00
2023-05-12T06:15:35.532Z,100.00
2023-05-12T06:18:09.715Z,100.00
2023-05-12T06:20:41.970Z,100.00
2023-05-12T06:23:12.596Z,100.00
2023-05-12T06:25:50.434Z,100.00
2023-05-12T06:28:32.456Z,100.00
2023-05-12T06:31:10.076Z,100.00
2023-05-12T06:33:45.695Z,100.00
2023-05-12T06:36:15.532Z,100.00
2023-05-12T06:38:45.327Z,100.00
2023-05-12T06:41:20.122Z,100.00
2023-05-12T06:43:49.928Z,100.00
2023-05-12T06:46:19.740Z,100.00
2023-05-12T06:48:49.849Z,100.00
2023-05-12T06:51:19.689Z,100.00
2023-05-12T06:53:49.598Z,100.00
2023-05-12T06:56:23.438Z,100.00
2023-05-12T06:58:53.274Z,100.00
2023-05-12T07:01:23.126Z,100.00
2023-05-12T07:03:52.998Z,100.00
2023-05-12T07:06:23.288Z,100.00
2023-05-12T07:08:53.346Z,100.00
2023-05-12T07:11:27.086Z,100.00
2023-05-12T07:13:57.283Z,100.00
2023-05-12T07:16:27.499Z,100.00
2023-05-12T07:18:57.723Z,100.00
2023-05-12T07:21:28.829Z,100.00
2023-05-12T07:23:59.473Z,100.00
2023-05-12T07:26:32.203Z,100.00
2023-05-12T07:29:04.232Z,100.00
2023-05-12T07:31:34.246Z,100.00
2023-05-12T07:34:04.475Z,100.00
2023-05-12T07:36:34.590Z,100.00
2023-05-12T07:39:04.437Z,100.00
2023-05-12T07:41:36.939Z,100.00
2023-05-12T07:44:06.760Z,100.00
2023-05-12T07:46:36.728Z,100.00
2023-05-12T07:49:07.508Z,100.00
2023-05-12T07:51:37.540Z,100.00
2023-05-12T07:54:10.124Z,100.00
2023-05-12T07:56:46.284Z,100.00
2023-05-12T07:59:16.166Z,100.00
2023-05-12T08:01:46.129Z,100.00
2023-05-12T08:04:16.304Z,100.00
2023-05-12T08:06:46.188Z,100.00
2023-05-12T08:09:16.045Z,100.00
2023-05-12T08:11:51.591Z,100.00
2023-05-12T08:14:22.815Z,100.00
2023-05-12T08:16:52.739Z,100.00
2023-05-12T08:19:23.458Z,100.00
2023-05-12T08:21:53.879Z,100.00
2023-05-12T08:24:23.712Z,100.00
2023-05-12T08:26:56.130Z,100.00
2023-05-12T08:29:25.977Z,100.00
2023-05-12T08:31:55.891Z,100.00
2023-05-12T08:34:25.746Z,100.00
2023-05-12T08:36:55.800Z,100.00
2023-05-12T08:39:25.672Z,100.00
2023-05-12T08:42:11.239Z,100.00
2023-05-12T08:44:41.474Z,100.00
2023-05-12T08:47:15.050Z,100.00
2023-05-12T08:49:49.382Z,100.00
2023-05-12T08:52:24.706Z,100.00
2023-05-12T08:55:01.017Z,100.00
2023-05-12T08:57:47.421Z,100.00
2023-05-12T09:51:55.830Z,100.00
2023-05-12T09:58:22.581Z,100.00
2023-05-12T10:16:12.384Z,100.00
2023-05-12T10:18:45.827Z,99.99
2023-05-12T10:21:24.317Z,98.60
2023-05-12T10:24:04.159Z,96.50
2023-05-12T10:26:36.204Z,95.98
2023-05-12T10:29:10.331Z,95.68
2023-05-12T10:31:44.498Z,94.40
2023-05-12T10:34:21.781Z,94.28
2023-05-12T10:36:56.690Z,93.73
2023-05-12T10:39:32.761Z,93.99
2023-05-12T10:42:13.994Z,93.96
2023-05-12T10:44:54.643Z,93.82
2023-05-12T10:47:39.101Z,93.83
2023-05-12T10:50:13.915Z,93.72
2023-05-12T10:52:45.426Z,93.68
2023-05-12T10:55:19.606Z,93.62
2023-05-12T10:57:55.940Z,93.39
2023-05-12T11:00:31.354Z,93.09
2023-05-12T11:03:17.095Z,92.86
2023-05-12T11:06:01.446Z,93.35
2023-05-12T11:08:40.366Z,93.31
2023-05-12T11:11:11.059Z,93.59
2023-05-12T11:13:42.647Z,93.59
2023-05-12T11:16:15.387Z,93.46
2023-05-12T11:18:48.900Z,93.78
2023-05-12T11:21:18.928Z,93.89
2023-05-12T11:23:56.542Z,94.42
2023-05-12T11:26:26.360Z,94.29
2023-05-12T11:28:56.366Z,94.50
2023-05-12T11:31:26.279Z,94.44
2023-05-12T11:34:13.665Z,94.42
2023-05-12T11:36:45.553Z,94.20
2023-05-12T11:39:21.016Z,94.58
2023-05-12T11:41:59.272Z,94.51
2023-05-12T11:44:35.670Z,94.39
2023-05-12T11:47:06.668Z,94.17
2023-05-12T11:49:49.097Z,94.51
2023-05-12T11:52:19.698Z,94.15
2023-05-12T11:54:54.697Z,93.65
2023-05-12T11:57:29.545Z,93.63
2023-05-12T12:00:00.970Z,92.64
2023-05-12T12:02:31.024Z,91.99
2023-05-12T12:05:03.721Z,92.07
2023-05-12T12:07:34.658Z,91.78
2023-05-12T12:10:14.987Z,92.27
2023-05-12T12:12:45.278Z,92.52
2023-05-12T12:15:15.807Z,92.76
2023-05-12T12:17:45.650Z,92.37
2023-05-12T12:20:18.999Z,92.88
2023-05-12T12:22:48.823Z,93.36
2023-05-12T12:25:19.887Z,93.48
2023-05-12T12:27:50.020Z,94.68
2023-05-12T12:30:20.061Z,94.86
2023-05-12T12:32:49.984Z,95.63
2023-05-12T12:35:23.389Z,96.34
2023-05-12T12:37:54.058Z,96.22
2023-05-12T12:40:23.942Z,95.22
2023-05-12T12:42:53.749Z,95.03
2023-05-12T12:45:23.879Z,95.08
2023-05-12T12:47:55.200Z,95.15
2023-05-12T12:50:27.872Z,95.22
2023-05-12T12:52:57.661Z,95.16
2023-05-12T12:55:27.620Z,94.78
2023-05-12T12:57:58.190Z,94.76
2023-05-12T13:00:28.648Z,93.81
2023-05-12T13:02:59.506Z,92.32
2023-05-12T13:05:31.988Z,91.23
2023-05-12T13:08:01.849Z,89.75
2023-05-12T13:10:31.781Z,88.63
2023-05-12T13:13:01.656Z,88.53
2023-05-12T13:15:34.813Z,87.96
2023-05-12T13:18:04.641Z,88.27
2023-05-12T13:20:37.216Z,88.25
2023-05-12T13:23:07.201Z,88.41
2023-05-12T13:25:37.034Z,88.83
2023-05-12T13:28:06.889Z,87.78
2023-05-12T13:30:36.841Z,87.81
2023-05-12T13:33:07.059Z,87.75
2023-05-12T13:35:39.822Z,86.42
2023-05-12T13:38:11.047Z,84.94
2023-05-12T13:40:41.792Z,84.61
2023-05-12T13:43:12.561Z,83.62
2023-05-12T13:45:43.161Z,82.81
2023-05-12T13:48:13.078Z,82.07
2023-05-12T13:50:45.628Z,82.00
2023-05-12T13:53:15.522Z,81.88
2023-05-12T13:55:45.715Z,80.93
2023-05-12T13:58:15.537Z,81.54
2023-05-12T14:00:45.415Z,81.14
2023-05-12T14:03:15.291Z,80.65
2023-05-12T14:05:47.715Z,81.09
2023-05-12T14:08:17.601Z,80.87
2023-05-12T14:10:47.460Z,80.53
2023-05-12T14:13:17.500Z,80.50
2023-05-12T14:15:51.480Z,79.52
2023-05-12T14:18:21.708Z,80.03
2023-05-12T14:20:54.561Z,81.05
2023-05-12T14:23:24.388Z,80.87
2023-05-12T14:25:54.635Z,80.98
2023-05-12T14:28:24.942Z,81.47
2023-05-12T14:30:57.514Z,82.07
2023-05-12T14:33:27.416Z,82.79
2023-05-12T14:36:07.158Z,82.94
2023-05-12T14:38:38.124Z,83.00
2023-05-12T14:41:08.677Z,82.71
2023-05-12T14:43:38.657Z,83.35
2023-05-12T14:46:09.005Z,84.26
2023-05-12T14:48:38.808Z,85.04
2023-05-12T14:51:11.226Z,84.82
2023-05-12T14:53:41.119Z,84.87
2023-05-12T14:56:17.529Z,85.46
2023-05-12T14:58:47.399Z,85.60
2023-05-12T15:01:17.487Z,85.45
2023-05-12T15:03:47.678Z,85.73
2023-05-12T15:06:22.447Z,85.38
2023-05-12T15:08:54.660Z,85.20
2023-05-12T15:11:24.772Z,85.81
2023-05-12T15:13:54.659Z,86.39
2023-05-12T15:16:26.392Z,86.61
2023-05-12T15:18:56.219Z,86.99
2023-05-12T15:21:28.736Z,86.83
2023-05-12T15:23:58.578Z,87.81
2023-05-12T15:26:33.653Z,88.01
2023-05-12T15:29:05.254Z,88.58
2023-05-12T15:31:37.655Z,88.95
2023-05-12T15:34:07.681Z,89.74
2023-05-12T15:36:40.124Z,89.98
2023-05-12T15:39:10.180Z,90.34
2023-05-12T15:41:40.005Z,90.96
2023-05-12T15:44:09.830Z,91.06
2023-05-12T15:46:39.715Z,91.00
2023-05-12T15:49:10.235Z,91.50
2023-05-12T15:51:42.756Z,91.75
2023-05-12T15:54:12.970Z,91.66
2023-05-12T15:56:44.831Z,91.28
2023-05-12T15:59:15.008Z,90.98
2023-05-12T16:01:44.921Z,90.40
2023-05-12T16:04:14.908Z,90.60
2023-05-12T16:06:47.792Z,90.63
2023-05-12T16:09:18.558Z,91.23
2023-05-12T16:11:49.067Z,91.48
2023-05-12T16:14:19.320Z,91.93
2023-05-12T16:16:49.694Z,92.29
2023-05-12T16:19:20.234Z,92.88
2023-05-12T16:21:53.543Z,93.33
2023-05-12T16:24:23.837Z,93.60
2023-05-12T16:26:53.753Z,94.00
2023-05-12T16:29:23.582Z,94.20
2023-05-12T16:31:53.928Z,94.17
2023-05-12T16:34:25.220Z,94.12
2023-05-12T16:36:57.646Z,94.55
2023-05-12T16:39:27.472Z,94.27
2023-05-12T16:41:57.256Z,93.90
2023-05-12T16:44:28.016Z,93.75
2023-05-12T16:46:57.861Z,93.71
2023-05-12T16:49:27.793Z,93.50
2023-05-12T16:52:00.189Z,93.07
2023-05-12T16:54:30.111Z,93.39
2023-05-12T16:57:02.099Z,93.42
2023-05-12T16:59:32.659Z,93.14
2023-05-12T17:02:02.613Z,93.20
2023-05-12T17:04:34.102Z,92.98
2023-05-12T17:07:06.658Z,93.13
2023-05-12T17:09:38.068Z,93.14
2023-05-12T17:12:08.874Z,92.91
2023-05-12T17:14:39.495Z,92.99
2023-05-12T17:17:09.448Z,92.93
2023-05-12T17:19:42.155Z,92.84
2023-05-12T17:22:14.676Z,92.65
2023-05-12T17:24:44.756Z,92.44
2023-05-12T17:27:14.606Z,92.49
2023-05-12T17:29:44.427Z,92.41
2023-05-12T17:32:14.313Z,92.10
2023-05-12T17:34:44.147Z,91.70
2023-05-12T17:37:18.906Z,91.56
2023-05-12T17:39:50.649Z,91.42
2023-05-12T17:42:20.600Z,91.04
2023-05-12T17:44:50.389Z,90.89
2023-05-12T17:47:20.314Z,90.51
2023-05-12T17:49:50.260Z,90.56
2023-05-12T17:52:22.779Z,90.44
2023-05-12T17:54:57.397Z,90.04
2023-05-12T17:57:27.442Z,90.22
2023-05-12T17:59:57.226Z,90.28
2023-05-12T18:02:27.175Z,90.07
2023-05-12T18:04:57.089Z,89.75
2023-05-12T18:07:29.652Z,89.53
2023-05-12T18:10:01.048Z,89.51
2023-05-12T18:12:31.168Z,89.52
2023-05-12T18:15:01.000Z,89.56
2023-05-12T18:17:31.696Z,89.39
2023-05-12T18:20:01.813Z,89.30
2023-05-12T18:22:34.311Z,89.23
2023-05-12T18:25:04.109Z,89.25
2023-05-12T18:27:33.985Z,89.06
2023-05-12T18:30:03.884Z,88.84
2023-05-12T18:32:33.853Z,88.92
2023-05-12T18:35:07.529Z,88.83
2023-05-12T18:37:39.986Z,88.83
2023-05-12T18:40:11.502Z,88.50
2023-05-12T18:42:41.439Z,88.01
2023-05-12T18:45:12.235Z,87.90
2023-05-12T18:47:42.491Z,87.46
2023-05-12T18:50:13.652Z,86.68
2023-05-12T18:52:46.105Z,86.04
2023-05-12T18:55:16.165Z,85.32
2023-05-12T18:57:48.274Z,84.63
2023-05-12T19:00:18.728Z,83.86
2023-05-12T19:02:48.578Z,83.06
2023-05-12T19:05:18.545Z,82.32
2023-05-12T19:07:54.876Z,81.94
2023-05-12T19:10:27.815Z,81.36
2023-05-12T19:12:57.910Z,80.81
2023-05-12T19:15:28.057Z,80.46
2023-05-12T19:18:01.003Z,80.42
2023-05-12T19:20:31.106Z,80.61
2023-05-12T19:23:10.499Z,80.67
2023-05-12T19:25:44.243Z,81.04
2023-05-12T19:28:18.893Z,81.77
2023-05-12T19:30:48.840Z,82.13
2023-05-12T19:33:21.548Z,82.74
2023-05-12T19:35:55.103Z,82.74
2023-05-12T19:38:27.820Z,83.14
2023-05-12T19:41:04.310Z,83.25
2023-05-12T19:43:35.928Z,83.38
2023-05-12T19:46:08.586Z,83.60
2023-05-12T19:48:40.762Z,83.48
2023-05-12T19:51:27.948Z,83.71
2023-05-12T19:54:02.280Z,83.83
2023-05-12T19:56:38.593Z,83.95
2023-05-12T19:59:12.749Z,84.01
2023-05-12T20:01:46.077Z,84.09
2023-05-12T20:04:16.810Z,84.26
2023-05-12T20:06:47.047Z,84.29
2023-05-12T20:09:40.788Z,84.70
2023-05-12T20:12:18.144Z,84.81
2023-05-12T20:14:50.760Z,85.11
2023-05-12T20:17:23.118Z,84.90
2023-05-12T20:19:57.838Z,84.98
2023-05-12T20:22:31.608Z,85.14
2023-05-12T20:25:08.579Z,85.52
2023-05-12T20:27:43.637Z,86.12
2023-05-12T20:30:17.153Z,86.39
2023-05-12T20:32:49.117Z,86.96
2023-05-12T20:35:22.592Z,87.42
2023-05-12T20:38:00.931Z,87.50
2023-05-12T20:40:34.761Z,87.86
2023-05-12T20:43:12.105Z,87.92
2023-05-12T20:45:42.809Z,88.32
2023-05-12T20:48:12.893Z,88.36
2023-05-12T20:50:43.441Z,88.82
2023-05-12T20:53:13.595Z,88.88
2023-05-12T20:55:46.195Z,89.22
2023-05-12T20:58:16.290Z,89.45
2023-05-12T21:00:46.171Z,89.32
2023-05-12T21:03:17.374Z,89.76
2023-05-12T21:05:50.317Z,89.71
2023-05-12T21:08:22.838Z,89.73
2023-05-12T21:10:56.190Z,89.62
2023-05-12T21:13:26.140Z,90.01
2023-05-12T21:15:56.662Z,90.07
2023-05-12T21:18:29.912Z,90.20
2023-05-12T21:21:01.503Z,90.11
2023-05-12T21:23:33.037Z,90.17
2023-05-12T21:26:10.807Z,89.97
2023-05-12T21:28:51.529Z,90.10
2023-05-12T21:31:32.716Z,90.28
2023-05-12T21:34:04.722Z,90.51
2023-05-12T21:36:34.911Z,90.50
2023-05-12T21:39:11.182Z,90.43
2023-05-12T21:41:43.741Z,90.43
2023-05-12T21:44:13.730Z,90.49
2023-05-12T21:46:44.061Z,90.57
2023-05-12T21:49:17.911Z,90.77
2023-05-12T21:51:48.117Z,91.02
2023-05-12T21:54:19.316Z,91.01
2023-05-12T21:56:52.035Z,91.36
2023-05-12T21:59:22.861Z,91.62
2023-05-12T22:01:53.044Z,91.71
2023-05-12T22:04:23.235Z,91.95
2023-05-12T22:06:56.091Z,91.98
2023-05-12T22:09:26.409Z,92.00
2023-05-12T22:11:58.979Z,91.97
2023-05-12T22:14:28.954Z,92.11
2023-05-12T22:16:58.913Z,92.22
2023-05-12T22:19:28.857Z,92.22
2023-05-12T22:25:01.859Z,92.62
2023-05-12T22:27:34.390Z,92.73
2023-05-12T22:30:04.350Z,92.81
2023-05-12T22:32:35.891Z,93.04
2023-05-12T22:35:07.412Z,93.36
2023-05-12T22:37:43.166Z,93.74
2023-05-12T23:12:24.401Z,94.58
2023-05-12T23:14:56.918Z,94.39
2023-05-12T23:17:26.931Z,94.22
2023-05-12T23:19:57.741Z,94.11
2023-05-12T23:22:29.311Z,94.16
2023-05-12T23:25:04.084Z,94.33
2023-05-12T23:27:36.776Z,94.41
2023-05-12T23:30:07.402Z,94.42
2023-05-12T23:32:37.477Z,94.51
2023-05-12T23:35:08.701Z,94.74
2023-05-12T23:37:38.761Z,95.01
2023-05-12T23:40:12.117Z,95.36
2023-05-12T23:42:48.239Z,95.82
2023-05-12T23:45:21.798Z,95.97
2023-05-12T23:47:58.651Z,96.28
2023-05-12T23:50:37.931Z,96.56
2023-05-12T23:53:09.697Z,96.68
2023-05-12T23:55:40.987Z,96.83
2023-05-12T23:58:15.074Z,97.19
